< Typhoon 200407 2004 Season Typhoon 200409 >
Typhoon 200408 (TINGTING)
General InformationTrack Information on Google MapsDetailed Wind InformationAccess Analytics MapList of All Images || NewsDisaster Info.WeblogTrackbackTyphoon FrontResourceGoogle EarthGE AnimationAtom FeedGeoJSON
Detalied Best Track (Time Zone = UTC)
Year Month Day Hour Lat. Long. Pressure (hPa) Wind (kt) Class Image Chart
2004 6 25 00 11.3 153.3 1002 0 2 Image Chart
2004 6 25 06 11.6 152.6 1002 0 2 Image Chart
2004 6 25 12 11.6 152.1 1002 0 2 Image Chart
2004 6 25 18 11.7 151.6 1000 0 2 Image Chart
2004 6 26 00 11.7 151.1 996 35 3 Image Chart
2004 6 26 06 11.8 150.8 990 40 3 Image Chart
2004 6 26 12 12.1 150.4 990 45 3 Image Chart
2004 6 26 18 12.9 149.9 990 45 3 Image Chart
2004 6 27 00 13.4 149.1 990 50 4 Image Chart
2004 6 27 06 13.9 148.3 990 50 4 Image Chart
2004 6 27 12 14.5 147.6 985 55 4 Image Chart
2004 6 27 18 15.3 147.0 980 60 4 Image Chart
2004 6 28 00 16.1 146.3 980 60 4 Image Chart
2004 6 28 06 16.7 145.7 975 65 5 Image Chart
2004 6 28 12 17.3 145.1 975 65 5 Image Chart
2004 6 28 18 18.1 144.3 970 65 5 Image Chart
2004 6 29 00 18.9 143.7 970 65 5 Image Chart
2004 6 29 06 19.9 143.2 970 70 5 Image Chart
2004 6 29 12 21.0 142.9 970 70 5 Image Chart
2004 6 29 18 22.3 142.6 965 75 5 Image Chart
2004 6 30 00 23.7 142.4 965 75 5 Image Chart
2004 6 30 06 24.9 142.3 960 80 5 Image Chart
2004 6 30 09 25.8 142.3 955 80 5 Image Chart
2004 6 30 12 26.5 142.4 955 80 5 Image Chart
2004 6 30 15 27.1 142.5 955 80 5 Image Chart
2004 6 30 18 27.6 142.7 960 80 5 Image Chart
2004 6 30 21 27.8 142.8 960 80 5 Image Chart
2004 7 1 00 28.4 143.3 970 70 5 Image Chart
2004 7 1 06 29.1 143.9 970 70 5 Image Chart
2004 7 1 12 29.8 144.5 970 70 5 Image Chart
2004 7 1 18 30.4 145.2 975 65 5 Image Chart
2004 7 2 00 31.0 145.8 975 65 5 Image Chart
2004 7 2 06 31.7 146.6 975 65 5 Image Chart
2004 7 2 12 32.2 147.6 980 60 4 Image Chart
2004 7 2 18 32.8 148.8 985 55 4 Image Chart
2004 7 3 00 33.5 150.3 985 55 4 Image Chart
2004 7 3 06 34.2 151.7 985 55 4 Image Chart
2004 7 3 12 34.9 153.5 990 50 4 Image Chart
2004 7 3 18 35.7 155.4 990 45 3 Image Chart
2004 7 4 00 37.2 157.5 990 45 3 Image Chart
2004 7 4 06 40.1 159.9 990 0 6 Image Chart
2004 7 4 12 43.4 162.0 990 0 6 Image Chart
2004 7 4 18 46.0 162.7 990 0 6 Image Chart
2004 7 5 00 47.9 162.3 986 0 6 Image Chart
2004 7 5 06 48.9 161.9 984 0 6 Image Chart
2004 7 5 12 48.4 162.4 984 0 6 Image Chart
2004 7 5 18 48.3 163.0 986 0 6 Image Chart
2004 7 6 00 48.4 163.4 988 0 6 Image Chart
2004 7 6 06 48.5 163.6 992 0 6 Image Chart
2004 7 6 12 48.2 164.3 994 0 6 Image Chart
2004 7 6 18 47.5 165.4 996 0 6 Image Chart
2004 7 7 00 47.3 166.7 996 0 6 Image Chart
2004 7 7 06 47.7 167.6 996 0 6 Image Chart
2004 7 7 12 48.3 167.4 996 0 6 Image Chart
2004 7 7 18 49.2 166.9 996 0 6 Image Chart
2004 7 8 00 49.3 166.6 996 0 6 Image Chart
2004 7 8 06 49.4 166.1 996 0 6 Image Chart
2004 7 8 12 49.5 165.7 996 0 6 Image Chart
2004 7 8 18 49.5 165.4 996 0 6 Image Chart
2004 7 9 00 49.4 164.9 996 0 6 Image Chart
2004 7 9 06 49.1 164.5 996 0 6 Image Chart
2004 7 9 12 48.3 164.3 994 0 6 Image Chart
2004 7 9 18 47.5 164.5 994 0 6 Image Chart
2004 7 10 00 46.4 165.1 994 0 6 Image Chart
2004 7 10 06 45.9 165.8 992 0 6 Image Chart
2004 7 10 12 45.6 166.8 996 0 6 Image Chart
2004 7 10 18 46.0 168.1 996 0 6 Image Chart
2004 7 11 00 46.7 169.0 996 0 6 Image Chart
2004 7 11 06 47.5 169.6 996 0 6 Image Chart
2004 7 11 12 48.2 169.7 998 0 6 Image Chart
2004 7 11 18 48.8 169.4 998 0 6 Image Chart
2004 7 12 00 49.4 170.7 1000 0 6 Image Chart
2004 7 12 06 49.9 171.7 1004 0 6 Image Chart
2004 7 12 12 50.7 172.4 1006 0 6 Image Chart
2004 7 12 18 51.1 174.0 1008 0 6 Image Chart
2004 7 13 00 50.9 176.2 1008 0 6 Image Chart
Japan Meteorological Agency Best Track Data | Correction Date : 2006-01-18
< Typhoon 200407 2004 Season Typhoon 200409 >

Help